Ahmed Mrezigue

Scout - MC Alger
3 Dez 2028
Sonntag
Verarbeitung

Persönlichkeit

Anpassungsfähigkeit (2) Ehrgeiz (12) Kontroverse (9) Loyalität (8) Druck (16) Professionalität (11) Fairness (18) Temperament (13)

Profil

Trainerstil Demokratisch
Lizenz Kontinentale Pro
Entschlossenheit 8
Menschenführung 8
Motivation 4
Disziplin 11
Arbeitszufriedenheit
71%
Ermüdung
0%
Rolle Scout
Gehalt 23.6K p/W
Vertrag 14.03.2029

Leistung

Verhalten Gut
Trainingseffektivität
26%
Spielerentwicklung
55%
Verletzungsprävention
35%
Taktische Umsetzung
30%

Letzte Ereignisse

Nahm an einer Scouting-Besprechung teil jetzt
Spieler begutachtet jetzt
Spieler begutachtet jetzt
Spieler begutachtet 7T her
Spieler begutachtet 7T her
Spiel beobachtet 7T her
Spieler begutachtet 7T her
Spieler begutachtet 7T her

Aktuell beobachtet

84
Spieler Verein Status Fähigkeit Vertrauen Beobachtet Zuletzt beobachtet Letzte Stimme
Gideon Manaseh Ikorodu City Aktiv 86 / 109 40% 5 01.12.2028 -
Rene Hrvatin Istra 1961 Aktiv 104 / 95 40% 3 01.12.2028 -
Jan Bürger Northampton Town Aktiv 114 / 115 40% 5 29.11.2028 -
Malte Heyde Esbjerg Aktiv 99 / 139 40% 1 29.11.2028 -
Davinchi Getafe Aktiv 109 / 132 40% 4 28.11.2028 -
Benito Paklayan Alvarado Aktiv 102 / 72 40% 2 26.11.2028 -
Jan Cedilnik Chikhura Aktiv 90 / 110 40% 5 26.11.2028 -
Rashid Al-Hassan Al-Mojzel Aktiv 82 / 94 40% 3 25.11.2028 -
Diego León Rotherham United Aktiv 116 / 114 40% 5 25.11.2028 -
Máximo Munarriz San Telmo Aktiv 90 / 97 40% 4 24.11.2028 -
Matías Satas Grimsby Town Aktiv 115 / 101 40% 1 24.11.2028 -
Noah Markmann Esbjerg Aktiv 119 / 128 40% 2 23.11.2028 -
Tiago Gordillo San Miguel Aktiv 90 / 111 40% 1 23.11.2028 -
Daniel Banjaqui Benfica Aktiv 134 / 115 40% 4 22.11.2028 -
Mateo Caballero Defensor Sporting Aktiv 105 / 90 40% 2 22.11.2028 -
José Neto Benfica Aktiv 116 / 135 40% 1 21.11.2028 -
Mateo Faure BATE Aktiv 82 / 94 40% 1 19.11.2028 -
Joel Ezra Enyimba Aktiv 97 / 95 40% 1 19.11.2028 -
Omar Kamel Vasco da Gama Aktiv 111 / 122 40% 1 10.11.2028 -
Riquelme Thompson-Jones Accrington Stanley Aktiv 125 / 131 40% 3 09.11.2028 -
Malte Hallin GIF Sundsvall Aktiv 106 / 96 40% 2 07.11.2028 -
Björn Hedlöf Helsingborg Aktiv 89 / 122 40% 3 06.11.2028 -
Joaquín Salas Reading Aktiv 119 / 118 40% 1 06.11.2028 -
Noa Mikić Imotski Aktiv 100 / 112 40% 1 05.11.2028 -
Abubacarr Sedi Kinteh Al-Ahli Aktiv 144 / 147 40% 1 04.11.2028 -
Tiago Rodríguez Central Norte Aktiv 65 / 62 40% 2 03.11.2028 -
Felipe Pujol Vélez Aktiv 107 / 139 40% 2 27.10.2028 -
Tobías Ramírez River Plate Aktiv 144 / 128 40% 2 27.10.2028 -
Estanislao López Colón Aktiv 107 / 103 40% 1 26.10.2028 -
Santiago Espíndola River Plate Aktiv 113 / 115 40% 1 24.10.2028 -
Ivan Borges Defensores Aktiv 67 / 108 40% 2 23.10.2028 -
Marko Zebić Lucko Aktiv 124 / 136 40% 1 20.10.2028 -
Germán Barbas Racing Santander Aktiv 137 / 113 40% 1 19.10.2028 -
Mauro Matorras Central Norte Aktiv 104 / 94 40% 2 18.10.2028 -
Aaron Branca Artigas Aktiv 67 / 75 40% 1 18.10.2028 -
Alexandr Derzhinskiy Slavia Mozyr Aktiv 89 / 114 40% 1 10.10.2028 -
Ronan Kpakio AC Milan Aktiv 133 / 147 40% 1 10.10.2028 -
Agustín Medina Lanús Aktiv 100 / 121 40% 2 09.10.2028 -
Miguel Figueiredo Benfica Aktiv 111 / 113 40% 1 06.10.2028 -
Omar Tharwat Arab Contractors Aktiv 95 / 98 40% 1 02.10.2028 -
Jakub Adkonis Korona Aktiv 95 / 107 40% 1 17.07.2028 -
Diego Vargas Universidad de Concepcion Verhandlung 112 / 96 40% 1 17.07.2028 -
Stanley Mills Crewe Alexandra Aktiv 119 / 142 40% 1 12.07.2028 -
Sorba Thomas Stoke City Aktiv 156 / 142 40% 1 12.07.2028 -
Aimen Lahmeri ES Setif Aktiv 120 / 105 51% 1 10.07.2028 -
Ahmed Zaki Masr El Makasa Aktiv 92 / 78 40% 4 30.05.2028 -
Andrey Ivlev Nizhniy Novgorod Aktiv 103 / 135 40% 3 30.05.2028 -
Nour Ashraf ENPPI Aktiv 90 / 105 40% 2 28.05.2028 -
Andrea Cogoni Cosenza Aktiv 100 / 110 40% 2 28.05.2028 -
Trey Nyoni Rotherham United Aktiv 144 / 130 40% 2 27.05.2028 -
Kiani Inge Groningen Aktiv 106 / 109 40% 3 26.05.2028 -
Tyler Fletcher Rotherham United Aktiv 104 / 98 40% 4 22.05.2028 -
Honest Ahanor Atalanta Aktiv 125 / 145 40% 2 20.05.2028 -
Olivier Leroux Mouscron Aktiv 94 / 106 40% 1 20.05.2028 -
Mahmoud El Shenawy Masr El Makasa Aktiv 59 / 62 40% 1 18.05.2028 -
Celías Ingenthron Platense Aktiv 123 / 108 40% 1 15.05.2028 -
Abubakar Adams Aduana Stars Aktiv 92 / 90 40% 1 09.05.2028 -
Martim Cunha Porto Aktiv 102 / 109 40% 2 06.05.2028 -
Giovanni Leoni Lincoln City Aktiv 137 / 161 40% 3 05.05.2028 -
Artem Nosachev Spartak Moscow Aktiv 78 / 92 40% 1 04.05.2028 -
Kamaldeen Atiemo Wa All Stars Aktiv 104 / 102 40% 4 29.04.2028 -
Moustapha Sémbène Al-Taawoun Aktiv 109 / 124 40% 1 25.04.2028 -
Thijs Kraaijeveld USM Alger Aktiv 109 / 121 40% 1 24.04.2028 -
Bernardo Lima Porto Aktiv 121 / 121 40% 3 20.04.2028 -
Josh Nichols Oldham Athletic Aktiv 128 / 128 40% 1 18.04.2028 -
Mohammed Al-Muhaysh Ohod Aktiv 79 / 82 40% 1 31.12.2027 -
Anatole Abang USM Alger Aktiv 103 / 122 48% 1 28.06.2027 -
Ben Ahmed Kohili Paradou Aktiv 99 / 111 48% 1 01.06.2027 -
Gonçalo Oliveira Benfica Aktiv 102 / 107 40% 4 30.05.2027 -
Rivaldo Mkhize Black Aces Aktiv 80 / 96 40% 1 28.05.2027 -
Jenson Jones Walsall Aktiv 73 / 117 40% 3 23.05.2027 -
Samuele di Benedetto Twente Aktiv 98 / 126 40% 1 18.05.2027 -
Zane Albarus Shrewsbury Town Aktiv 110 / 90 40% 1 18.05.2027 -
Ezra Mayers West Ham United Aktiv 123 / 127 40% 2 16.05.2027 -
Andrea Bertoncini Triestina Aktiv 80 / 115 40% 1 06.05.2027 -
Bade Aluko Leicester City Aktiv 129 / 112 40% 1 05.05.2027 -
Sascha Britschgi AC Milan Aktiv 128 / 125 40% 1 23.04.2027 -
Riyad Idrissi Cagliari Aktiv 106 / 124 40% 1 23.04.2027 -
Mpho Khethang FC Diarra Aktiv 72 / 73 40% 1 09.04.2027 -
Leandro Martins Benfica Aktiv 93 / 111 40% 1 08.04.2027 -
Gastón Álvarez Al-Qadisiyah Aktiv 121 / 137 40% 2 26.03.2027 -
Ali Majrashi Al-Ahli Aktiv 124 / 116 40% 2 20.03.2027 -
Saeed Baattia Al-Fateh Aktiv 107 / 116 40% 1 20.03.2027 -
Ahmed Khaldi USM Alger Aktiv 106 / 111 44% 1 03.08.2026 -